sensor_id;sensor_type;location;lat;lon;timestamp;P1;durP1;ratioP1;P2;durP2;ratioP2
19343;SDS011;9808;52.402;16.678;2023-03-01T00:00:51;366.93;;;141.73;;
19343;SDS011;9808;52.402;16.678;2023-03-01T00:03:38;341.93;;;130.50;;
19343;SDS011;9808;52.402;16.678;2023-03-01T00:06:05;326.90;;;125.53;;
19343;SDS011;9808;52.402;16.678;2023-03-01T00:08:33;312.73;;;121.33;;
19343;SDS011;9808;52.402;16.678;2023-03-01T00:14:07;296.07;;;112.60;;
19343;SDS011;9808;52.402;16.678;2023-03-01T00:16:39;319.10;;;123.00;;
19343;SDS011;9808;52.402;16.678;2023-03-01T00:19:08;321.30;;;123.10;;
19343;SDS011;9808;52.402;16.678;2023-03-01T00:21:36;359.40;;;138.93;;
19343;SDS011;9808;52.402;16.678;2023-03-01T00:24:03;325.17;;;131.97;;
19343;SDS011;9808;52.402;16.678;2023-03-01T00:26:31;352.57;;;134.97;;
19343;SDS011;9808;52.402;16.678;2023-03-01T00:28:58;349.67;;;132.17;;
19343;SDS011;9808;52.402;16.678;2023-03-01T00:31:27;342.90;;;127.07;;
19343;SDS011;9808;52.402;16.678;2023-03-01T00:33:56;286.63;;;115.30;;
19343;SDS011;9808;52.402;16.678;2023-03-01T00:36:24;281.43;;;111.37;;
19343;SDS011;9808;52.402;16.678;2023-03-01T00:38:52;278.17;;;110.33;;
19343;SDS011;9808;52.402;16.678;2023-03-01T00:41:19;277.00;;;107.43;;
19343;SDS011;9808;52.402;16.678;2023-03-01T00:43:49;269.53;;;106.20;;
19343;SDS011;9808;52.402;16.678;2023-03-01T00:46:17;295.97;;;113.50;;
19343;SDS011;9808;52.402;16.678;2023-03-01T00:48:45;326.23;;;122.47;;
19343;SDS011;9808;52.402;16.678;2023-03-01T00:51:13;283.47;;;111.67;;
19343;SDS011;9808;52.402;16.678;2023-03-01T00:53:41;278.23;;;107.80;;
19343;SDS011;9808;52.402;16.678;2023-03-01T00:56:09;279.63;;;101.77;;
19343;SDS011;9808;52.402;16.678;2023-03-01T00:58:37;325.70;;;118.60;;
19343;SDS011;9808;52.402;16.678;2023-03-01T01:01:10;310.30;;;114.40;;
19343;SDS011;9808;52.402;16.678;2023-03-01T01:03:46;274.27;;;100.40;;
19343;SDS011;9808;52.402;16.678;2023-03-01T01:06:15;250.30;;;92.77;;
19343;SDS011;9808;52.402;16.678;2023-03-01T01:08:42;244.90;;;91.07;;
19343;SDS011;9808;52.402;16.678;2023-03-01T01:11:10;236.33;;;88.67;;
19343;SDS011;9808;52.402;16.678;2023-03-01T01:13:38;238.80;;;86.77;;
19343;SDS011;9808;52.402;16.678;2023-03-01T01:16:05;218.13;;;84.43;;
19343;SDS011;9808;52.402;16.678;2023-03-01T01:18:32;225.73;;;84.27;;
19343;SDS011;9808;52.402;16.678;2023-03-01T01:21:03;233.03;;;83.30;;
19343;SDS011;9808;52.402;16.678;2023-03-01T01:23:31;234.73;;;85.00;;
19343;SDS011;9808;52.402;16.678;2023-03-01T01:26:03;228.37;;;83.83;;
19343;SDS011;9808;52.402;16.678;2023-03-01T01:28:30;224.33;;;84.83;;
19343;SDS011;9808;52.402;16.678;2023-03-01T01:30:57;209.43;;;81.90;;
19343;SDS011;9808;52.402;16.678;2023-03-01T01:33:25;208.03;;;78.63;;
19343;SDS011;9808;52.402;16.678;2023-03-01T01:35:53;216.50;;;81.20;;
19343;SDS011;9808;52.402;16.678;2023-03-01T01:38:20;201.93;;;75.40;;
19343;SDS011;9808;52.402;16.678;2023-03-01T01:40:48;226.63;;;78.30;;
19343;SDS011;9808;52.402;16.678;2023-03-01T01:43:23;198.60;;;74.57;;
19343;SDS011;9808;52.402;16.678;2023-03-01T01:45:52;191.30;;;71.03;;
19343;SDS011;9808;52.402;16.678;2023-03-01T01:48:22;199.37;;;73.03;;
19343;SDS011;9808;52.402;16.678;2023-03-01T01:50:55;203.27;;;74.80;;
19343;SDS011;9808;52.402;16.678;2023-03-01T01:53:24;217.87;;;76.80;;
19343;SDS011;9808;52.402;16.678;2023-03-01T01:55:53;195.20;;;73.00;;
19343;SDS011;9808;52.402;16.678;2023-03-01T01:58:23;196.33;;;74.50;;
19343;SDS011;9808;52.402;16.678;2023-03-01T02:00:51;187.77;;;70.57;;
19343;SDS011;9808;52.402;16.678;2023-03-01T02:03:19;178.50;;;69.47;;
19343;SDS011;9808;52.402;16.678;2023-03-01T02:08:31;165.90;;;68.00;;
19343;SDS011;9808;52.402;16.678;2023-03-01T02:11:00;189.90;;;70.77;;
19343;SDS011;9808;52.402;16.678;2023-03-01T02:13:30;187.10;;;69.67;;
19343;SDS011;9808;52.402;16.678;2023-03-01T02:15:58;178.03;;;70.80;;
19343;SDS011;9808;52.402;16.678;2023-03-01T02:18:26;172.47;;;65.60;;
19343;SDS011;9808;52.402;16.678;2023-03-01T02:23:40;180.13;;;66.90;;
19343;SDS011;9808;52.402;16.678;2023-03-01T02:26:09;173.10;;;67.80;;
19343;SDS011;9808;52.402;16.678;2023-03-01T02:28:40;183.33;;;69.30;;
19343;SDS011;9808;52.402;16.678;2023-03-01T02:31:08;174.90;;;70.03;;
19343;SDS011;9808;52.402;16.678;2023-03-01T02:33:55;190.83;;;73.53;;
19343;SDS011;9808;52.402;16.678;2023-03-01T02:36:24;197.80;;;78.97;;
19343;SDS011;9808;52.402;16.678;2023-03-01T02:38:52;215.83;;;81.07;;
19343;SDS011;9808;52.402;16.678;2023-03-01T02:41:20;216.37;;;81.43;;
19343;SDS011;9808;52.402;16.678;2023-03-01T02:43:48;265.90;;;92.63;;
19343;SDS011;9808;52.402;16.678;2023-03-01T02:46:17;257.90;;;92.07;;
19343;SDS011;9808;52.402;16.678;2023-03-01T02:48:49;279.83;;;92.67;;
19343;SDS011;9808;52.402;16.678;2023-03-01T02:54:10;253.03;;;87.87;;
19343;SDS011;9808;52.402;16.678;2023-03-01T02:56:39;265.43;;;91.57;;
19343;SDS011;9808;52.402;16.678;2023-03-01T02:59:06;252.27;;;90.30;;
19343;SDS011;9808;52.402;16.678;2023-03-01T03:01:33;259.00;;;86.30;;
19343;SDS011;9808;52.402;16.678;2023-03-01T03:04:08;235.27;;;86.40;;
19343;SDS011;9808;52.402;16.678;2023-03-01T03:06:36;247.33;;;83.13;;
19343;SDS011;9808;52.402;16.678;2023-03-01T03:09:03;230.27;;;80.00;;
19343;SDS011;9808;52.402;16.678;2023-03-01T03:11:31;222.23;;;77.67;;
19343;SDS011;9808;52.402;16.678;2023-03-01T03:13:58;215.90;;;77.87;;
19343;SDS011;9808;52.402;16.678;2023-03-01T03:16:25;240.37;;;82.27;;
19343;SDS011;9808;52.402;16.678;2023-03-01T03:18:53;243.80;;;82.70;;
19343;SDS011;9808;52.402;16.678;2023-03-01T03:21:20;215.37;;;79.23;;
19343;SDS011;9808;52.402;16.678;2023-03-01T03:23:47;229.00;;;77.70;;
19343;SDS011;9808;52.402;16.678;2023-03-01T03:26:14;235.67;;;78.23;;
19343;SDS011;9808;52.402;16.678;2023-03-01T03:28:42;212.77;;;81.63;;
19343;SDS011;9808;52.402;16.678;2023-03-01T03:31:09;241.40;;;84.67;;
19343;SDS011;9808;52.402;16.678;2023-03-01T03:33:36;270.13;;;89.80;;
19343;SDS011;9808;52.402;16.678;2023-03-01T03:36:04;283.63;;;93.60;;
19343;SDS011;9808;52.402;16.678;2023-03-01T03:38:31;261.43;;;91.77;;
19343;SDS011;9808;52.402;16.678;2023-03-01T03:40:59;238.27;;;86.07;;
19343;SDS011;9808;52.402;16.678;2023-03-01T03:43:31;223.00;;;79.10;;
19343;SDS011;9808;52.402;16.678;2023-03-01T03:45:58;210.90;;;76.57;;
19343;SDS011;9808;52.402;16.678;2023-03-01T03:48:26;217.43;;;77.40;;
19343;SDS011;9808;52.402;16.678;2023-03-01T03:50:55;207.87;;;73.57;;
19343;SDS011;9808;52.402;16.678;2023-03-01T03:53:23;197.57;;;75.23;;
19343;SDS011;9808;52.402;16.678;2023-03-01T03:55:51;195.77;;;74.60;;
19343;SDS011;9808;52.402;16.678;2023-03-01T03:58:19;187.53;;;68.63;;
19343;SDS011;9808;52.402;16.678;2023-03-01T04:00:47;183.93;;;68.63;;
19343;SDS011;9808;52.402;16.678;2023-03-01T04:03:15;186.93;;;69.00;;
19343;SDS011;9808;52.402;16.678;2023-03-01T04:05:44;205.33;;;70.63;;
19343;SDS011;9808;52.402;16.678;2023-03-01T04:08:12;183.73;;;70.60;;
19343;SDS011;9808;52.402;16.678;2023-03-01T04:10:40;172.23;;;67.13;;
19343;SDS011;9808;52.402;16.678;2023-03-01T04:13:09;168.67;;;63.27;;
19343;SDS011;9808;52.402;16.678;2023-03-01T04:15:37;171.83;;;64.97;;
19343;SDS011;9808;52.402;16.678;2023-03-01T04:18:05;167.63;;;66.73;;
19343;SDS011;9808;52.402;16.678;2023-03-01T04:20:33;163.07;;;63.83;;
19343;SDS011;9808;52.402;16.678;2023-03-01T04:23:07;153.00;;;61.40;;
19343;SDS011;9808;52.402;16.678;2023-03-01T04:28:24;164.63;;;60.30;;
19343;SDS011;9808;52.402;16.678;2023-03-01T04:30:52;163.33;;;59.33;;
19343;SDS011;9808;52.402;16.678;2023-03-01T04:33:19;166.03;;;62.00;;
19343;SDS011;9808;52.402;16.678;2023-03-01T04:35:47;159.07;;;63.20;;
19343;SDS011;9808;52.402;16.678;2023-03-01T04:38:18;161.93;;;60.43;;
19343;SDS011;9808;52.402;16.678;2023-03-01T04:40:45;165.00;;;63.50;;
19343;SDS011;9808;52.402;16.678;2023-03-01T04:43:12;158.80;;;61.50;;
19343;SDS011;9808;52.402;16.678;2023-03-01T04:45:43;169.17;;;62.40;;
19343;SDS011;9808;52.402;16.678;2023-03-01T04:48:11;154.80;;;59.27;;
19343;SDS011;9808;52.402;16.678;2023-03-01T04:50:38;142.17;;;58.20;;
19343;SDS011;9808;52.402;16.678;2023-03-01T04:53:05;150.73;;;61.73;;
19343;SDS011;9808;52.402;16.678;2023-03-01T04:55:33;169.23;;;61.50;;
19343;SDS011;9808;52.402;16.678;2023-03-01T04:58:00;157.10;;;58.23;;
19343;SDS011;9808;52.402;16.678;2023-03-01T05:00:28;184.83;;;65.93;;
19343;SDS011;9808;52.402;16.678;2023-03-01T05:02:56;171.57;;;65.37;;
19343;SDS011;9808;52.402;16.678;2023-03-01T05:05:30;151.47;;;57.50;;
19343;SDS011;9808;52.402;16.678;2023-03-01T05:07:59;146.13;;;54.60;;
19343;SDS011;9808;52.402;16.678;2023-03-01T05:10:27;147.47;;;56.83;;
19343;SDS011;9808;52.402;16.678;2023-03-01T05:12:55;200.40;;;69.40;;
19343;SDS011;9808;52.402;16.678;2023-03-01T05:15:26;185.30;;;65.53;;
19343;SDS011;9808;52.402;16.678;2023-03-01T05:17:54;175.83;;;63.43;;
19343;SDS011;9808;52.402;16.678;2023-03-01T05:20:22;171.90;;;59.40;;
19343;SDS011;9808;52.402;16.678;2023-03-01T05:22:53;182.43;;;65.17;;
19343;SDS011;9808;52.402;16.678;2023-03-01T05:25:21;176.70;;;62.17;;
19343;SDS011;9808;52.402;16.678;2023-03-01T05:27:48;165.93;;;63.97;;
19343;SDS011;9808;52.402;16.678;2023-03-01T05:30:16;178.43;;;64.30;;
19343;SDS011;9808;52.402;16.678;2023-03-01T05:32:45;172.97;;;62.73;;
19343;SDS011;9808;52.402;16.678;2023-03-01T05:35:13;157.13;;;61.50;;
19343;SDS011;9808;52.402;16.678;2023-03-01T05:37:45;165.23;;;62.33;;
19343;SDS011;9808;52.402;16.678;2023-03-01T05:40:14;160.03;;;59.47;;
19343;SDS011;9808;52.402;16.678;2023-03-01T05:42:43;155.80;;;59.00;;
19343;SDS011;9808;52.402;16.678;2023-03-01T05:45:10;151.53;;;57.00;;
19343;SDS011;9808;52.402;16.678;2023-03-01T05:47:39;166.30;;;60.33;;
19343;SDS011;9808;52.402;16.678;2023-03-01T05:50:13;164.30;;;59.27;;
19343;SDS011;9808;52.402;16.678;2023-03-01T05:52:49;148.87;;;57.03;;
19343;SDS011;9808;52.402;16.678;2023-03-01T05:55:17;147.70;;;56.83;;
19343;SDS011;9808;52.402;16.678;2023-03-01T05:57:45;158.67;;;57.00;;
19343;SDS011;9808;52.402;16.678;2023-03-01T06:00:14;151.47;;;59.30;;
19343;SDS011;9808;52.402;16.678;2023-03-01T06:02:41;160.13;;;57.73;;
19343;SDS011;9808;52.402;16.678;2023-03-01T06:05:09;166.57;;;60.03;;
19343;SDS011;9808;52.402;16.678;2023-03-01T06:07:37;162.60;;;61.40;;
19343;SDS011;9808;52.402;16.678;2023-03-01T06:10:05;186.20;;;63.20;;
19343;SDS011;9808;52.402;16.678;2023-03-01T06:12:33;203.73;;;72.67;;
19343;SDS011;9808;52.402;16.678;2023-03-01T06:15:00;303.77;;;97.37;;
19343;SDS011;9808;52.402;16.678;2023-03-01T06:17:29;286.83;;;97.07;;
19343;SDS011;9808;52.402;16.678;2023-03-01T06:19:56;295.43;;;97.70;;
19343;SDS011;9808;52.402;16.678;2023-03-01T06:22:23;327.37;;;107.13;;
19343;SDS011;9808;52.402;16.678;2023-03-01T06:24:51;345.37;;;117.20;;
19343;SDS011;9808;52.402;16.678;2023-03-01T06:27:18;438.23;;;136.23;;
19343;SDS011;9808;52.402;16.678;2023-03-01T06:29:46;600.10;;;196.67;;
19343;SDS011;9808;52.402;16.678;2023-03-01T06:32:13;662.87;;;209.27;;
19343;SDS011;9808;52.402;16.678;2023-03-01T06:34:40;612.27;;;199.93;;
19343;SDS011;9808;52.402;16.678;2023-03-01T06:37:07;530.70;;;164.00;;
19343;SDS011;9808;52.402;16.678;2023-03-01T06:39:34;475.50;;;145.23;;
19343;SDS011;9808;52.402;16.678;2023-03-01T06:42:02;449.20;;;136.63;;
19343;SDS011;9808;52.402;16.678;2023-03-01T06:44:29;416.47;;;134.70;;
19343;SDS011;9808;52.402;16.678;2023-03-01T06:46:57;384.90;;;122.37;;
19343;SDS011;9808;52.402;16.678;2023-03-01T06:49:25;379.00;;;124.93;;
19343;SDS011;9808;52.402;16.678;2023-03-01T06:51:52;363.10;;;118.17;;
19343;SDS011;9808;52.402;16.678;2023-03-01T06:54:19;302.87;;;105.40;;
19343;SDS011;9808;52.402;16.678;2023-03-01T06:56:48;291.77;;;98.43;;
19343;SDS011;9808;52.402;16.678;2023-03-01T06:59:16;233.17;;;85.27;;
19343;SDS011;9808;52.402;16.678;2023-03-01T07:01:44;243.77;;;86.37;;
19343;SDS011;9808;52.402;16.678;2023-03-01T07:04:12;225.63;;;77.37;;
19343;SDS011;9808;52.402;16.678;2023-03-01T07:06:39;198.67;;;67.10;;
19343;SDS011;9808;52.402;16.678;2023-03-01T07:09:06;155.63;;;57.70;;
19343;SDS011;9808;52.402;16.678;2023-03-01T07:11:34;131.87;;;49.33;;
19343;SDS011;9808;52.402;16.678;2023-03-01T07:14:01;122.60;;;43.83;;
19343;SDS011;9808;52.402;16.678;2023-03-01T07:16:28;117.03;;;40.57;;
19343;SDS011;9808;52.402;16.678;2023-03-01T07:18:56;101.40;;;38.13;;
19343;SDS011;9808;52.402;16.678;2023-03-01T07:21:25;94.00;;;36.83;;
19343;SDS011;9808;52.402;16.678;2023-03-01T07:23:52;80.90;;;34.43;;
19343;SDS011;9808;52.402;16.678;2023-03-01T07:26:19;81.17;;;33.23;;
19343;SDS011;9808;52.402;16.678;2023-03-01T07:28:46;95.03;;;37.00;;
19343;SDS011;9808;52.402;16.678;2023-03-01T07:31:14;117.33;;;45.87;;
19343;SDS011;9808;52.402;16.678;2023-03-01T07:33:41;108.93;;;41.47;;
19343;SDS011;9808;52.402;16.678;2023-03-01T07:36:08;113.87;;;43.67;;
19343;SDS011;9808;52.402;16.678;2023-03-01T07:38:36;105.50;;;40.07;;
19343;SDS011;9808;52.402;16.678;2023-03-01T07:41:03;112.30;;;41.30;;
19343;SDS011;9808;52.402;16.678;2023-03-01T07:43:31;97.10;;;38.07;;
19343;SDS011;9808;52.402;16.678;2023-03-01T07:45:59;120.13;;;43.20;;
19343;SDS011;9808;52.402;16.678;2023-03-01T07:48:27;68.93;;;30.20;;
19343;SDS011;9808;52.402;16.678;2023-03-01T07:50:57;68.20;;;24.57;;
19343;SDS011;9808;52.402;16.678;2023-03-01T07:53:25;56.23;;;21.87;;
19343;SDS011;9808;52.402;16.678;2023-03-01T07:56:02;48.33;;;21.47;;
19343;SDS011;9808;52.402;16.678;2023-03-01T07:58:29;58.13;;;21.30;;
19343;SDS011;9808;52.402;16.678;2023-03-01T08:01:00;54.37;;;18.93;;
19343;SDS011;9808;52.402;16.678;2023-03-01T08:03:28;50.57;;;19.93;;
19343;SDS011;9808;52.402;16.678;2023-03-01T08:05:55;44.57;;;18.83;;
19343;SDS011;9808;52.402;16.678;2023-03-01T08:08:22;41.37;;;17.80;;
19343;SDS011;9808;52.402;16.678;2023-03-01T08:10:50;44.37;;;18.47;;
19343;SDS011;9808;52.402;16.678;2023-03-01T08:13:17;35.90;;;16.00;;
19343;SDS011;9808;52.402;16.678;2023-03-01T08:15:49;38.60;;;17.00;;
19343;SDS011;9808;52.402;16.678;2023-03-01T08:18:17;42.60;;;16.60;;
19343;SDS011;9808;52.402;16.678;2023-03-01T08:20:44;38.33;;;16.70;;
19343;SDS011;9808;52.402;16.678;2023-03-01T08:23:12;41.53;;;16.17;;
19343;SDS011;9808;52.402;16.678;2023-03-01T08:25:39;37.80;;;16.13;;
19343;SDS011;9808;52.402;16.678;2023-03-01T08:28:06;39.60;;;15.30;;
19343;SDS011;9808;52.402;16.678;2023-03-01T08:30:34;33.27;;;14.57;;
19343;SDS011;9808;52.402;16.678;2023-03-01T08:33:01;36.60;;;16.10;;
19343;SDS011;9808;52.402;16.678;2023-03-01T08:35:29;38.47;;;16.87;;
19343;SDS011;9808;52.402;16.678;2023-03-01T08:37:56;34.30;;;14.70;;
19343;SDS011;9808;52.402;16.678;2023-03-01T08:40:23;28.00;;;13.63;;
19343;SDS011;9808;52.402;16.678;2023-03-01T08:42:50;27.47;;;12.37;;
19343;SDS011;9808;52.402;16.678;2023-03-01T08:45:18;28.67;;;12.40;;
19343;SDS011;9808;52.402;16.678;2023-03-01T08:47:45;25.50;;;10.10;;
19343;SDS011;9808;52.402;16.678;2023-03-01T08:50:12;26.80;;;10.50;;
19343;SDS011;9808;52.402;16.678;2023-03-01T08:52:39;30.63;;;11.40;;
19343;SDS011;9808;52.402;16.678;2023-03-01T08:55:07;28.57;;;10.47;;
19343;SDS011;9808;52.402;16.678;2023-03-01T08:57:35;25.03;;;9.63;;
19343;SDS011;9808;52.402;16.678;2023-03-01T09:00:02;22.43;;;10.43;;
19343;SDS011;9808;52.402;16.678;2023-03-01T09:02:34;28.57;;;11.00;;
19343;SDS011;9808;52.402;16.678;2023-03-01T09:05:01;25.13;;;11.17;;
19343;SDS011;9808;52.402;16.678;2023-03-01T09:07:29;25.23;;;10.97;;
19343;SDS011;9808;52.402;16.678;2023-03-01T09:09:56;33.10;;;11.57;;
19343;SDS011;9808;52.402;16.678;2023-03-01T09:12:23;26.10;;;10.93;;
19343;SDS011;9808;52.402;16.678;2023-03-01T09:14:51;39.10;;;14.57;;
19343;SDS011;9808;52.402;16.678;2023-03-01T09:17:18;25.17;;;10.00;;
19343;SDS011;9808;52.402;16.678;2023-03-01T09:19:47;24.63;;;10.33;;
19343;SDS011;9808;52.402;16.678;2023-03-01T09:22:15;28.27;;;10.73;;
19343;SDS011;9808;52.402;16.678;2023-03-01T09:24:43;39.90;;;13.70;;
19343;SDS011;9808;52.402;16.678;2023-03-01T09:27:10;26.35;;;9.80;;
19343;SDS011;9808;52.402;16.678;2023-03-01T09:29:39;26.90;;;9.33;;
19343;SDS011;9808;52.402;16.678;2023-03-01T09:32:06;22.13;;;7.43;;
19343;SDS011;9808;52.402;16.678;2023-03-01T09:34:34;20.10;;;8.47;;
19343;SDS011;9808;52.402;16.678;2023-03-01T09:37:22;22.07;;;9.37;;
19343;SDS011;9808;52.402;16.678;2023-03-01T09:39:49;22.93;;;9.53;;
19343;SDS011;9808;52.402;16.678;2023-03-01T09:42:16;25.87;;;9.93;;
19343;SDS011;9808;52.402;16.678;2023-03-01T09:44:54;25.40;;;10.33;;
19343;SDS011;9808;52.402;16.678;2023-03-01T09:47:26;24.10;;;9.50;;
19343;SDS011;9808;52.402;16.678;2023-03-01T09:49:57;28.80;;;11.13;;
19343;SDS011;9808;52.402;16.678;2023-03-01T09:52:42;29.00;;;11.67;;
19343;SDS011;9808;52.402;16.678;2023-03-01T09:55:11;24.37;;;10.33;;
19343;SDS011;9808;52.402;16.678;2023-03-01T10:10:38;23.33;;;9.70;;
19343;SDS011;9808;52.402;16.678;2023-03-01T10:15:44;21.13;;;9.50;;
19343;SDS011;9808;52.402;16.678;2023-03-01T10:18:13;22.20;;;10.43;;
19343;SDS011;9808;52.402;16.678;2023-03-01T10:20:50;20.90;;;9.40;;
19343;SDS011;9808;52.402;16.678;2023-03-01T10:23:19;21.50;;;9.40;;
19343;SDS011;9808;52.402;16.678;2023-03-01T10:28:22;22.60;;;8.97;;
19343;SDS011;9808;52.402;16.678;2023-03-01T10:30:51;22.57;;;8.97;;
19343;SDS011;9808;52.402;16.678;2023-03-01T10:33:23;22.70;;;9.53;;
19343;SDS011;9808;52.402;16.678;2023-03-01T10:35:51;19.37;;;9.27;;
19343;SDS011;9808;52.402;16.678;2023-03-01T10:38:19;23.20;;;9.87;;
19343;SDS011;9808;52.402;16.678;2023-03-01T10:40:52;20.73;;;8.97;;
19343;SDS011;9808;52.402;16.678;2023-03-01T10:43:20;22.67;;;9.47;;
19343;SDS011;9808;52.402;16.678;2023-03-01T10:45:48;21.53;;;9.30;;
19343;SDS011;9808;52.402;16.678;2023-03-01T10:53:52;17.80;;;7.50;;
19343;SDS011;9808;52.402;16.678;2023-03-01T10:56:19;17.33;;;8.53;;
19343;SDS011;9808;52.402;16.678;2023-03-01T10:58:57;19.23;;;7.63;;
19343;SDS011;9808;52.402;16.678;2023-03-01T11:01:32;15.97;;;7.97;;
19343;SDS011;9808;52.402;16.678;2023-03-01T11:04:11;19.33;;;7.93;;
19343;SDS011;9808;52.402;16.678;2023-03-01T11:06:39;25.67;;;8.20;;
19343;SDS011;9808;52.402;16.678;2023-03-01T11:09:23;16.83;;;7.00;;
19343;SDS011;9808;52.402;16.678;2023-03-01T11:11:54;16.63;;;7.33;;
19343;SDS011;9808;52.402;16.678;2023-03-01T11:14:25;20.90;;;8.00;;
19343;SDS011;9808;52.402;16.678;2023-03-01T11:17:04;18.20;;;8.13;;
19343;SDS011;9808;52.402;16.678;2023-03-01T11:19:31;18.43;;;8.33;;
19343;SDS011;9808;52.402;16.678;2023-03-01T11:22:01;17.97;;;8.47;;
19343;SDS011;9808;52.402;16.678;2023-03-01T11:24:40;18.23;;;8.37;;
19343;SDS011;9808;52.402;16.678;2023-03-01T11:27:14;18.60;;;8.20;;
19343;SDS011;9808;52.402;16.678;2023-03-01T11:29:44;18.47;;;7.60;;
19343;SDS011;9808;52.402;16.678;2023-03-01T11:32:14;20.40;;;8.70;;
19343;SDS011;9808;52.402;16.678;2023-03-01T11:39:58;18.17;;;7.80;;
19343;SDS011;9808;52.402;16.678;2023-03-01T11:45:12;19.63;;;6.73;;
19343;SDS011;9808;52.402;16.678;2023-03-01T11:50:09;19.50;;;7.67;;
19343;SDS011;9808;52.402;16.678;2023-03-01T12:01:25;18.37;;;7.50;;
19343;SDS011;9808;52.402;16.678;2023-03-01T12:06:32;16.23;;;7.73;;
19343;SDS011;9808;52.402;16.678;2023-03-01T12:09:22;17.43;;;6.97;;
19343;SDS011;9808;52.402;16.678;2023-03-01T12:14:34;17.33;;;7.30;;
19343;SDS011;9808;52.402;16.678;2023-03-01T12:32:56;14.50;;;6.80;;
19343;SDS011;9808;52.402;16.678;2023-03-01T12:40:32;13.97;;;6.73;;
19343;SDS011;9808;52.402;16.678;2023-03-01T12:43:16;17.40;;;8.00;;
19343;SDS011;9808;52.402;16.678;2023-03-01T12:50:57;19.07;;;7.70;;
19343;SDS011;9808;52.402;16.678;2023-03-01T12:53:26;16.30;;;6.63;;
19343;SDS011;9808;52.402;16.678;2023-03-01T12:55:56;17.47;;;7.30;;
19343;SDS011;9808;52.402;16.678;2023-03-01T13:01:22;15.87;;;7.20;;
19343;SDS011;9808;52.402;16.678;2023-03-01T13:08:57;14.50;;;6.23;;
19343;SDS011;9808;52.402;16.678;2023-03-01T13:11:26;19.93;;;7.10;;
19343;SDS011;9808;52.402;16.678;2023-03-01T13:14:36;17.23;;;6.53;;
19343;SDS011;9808;52.402;16.678;2023-03-01T13:16:44;12.37;;;6.10;;
19343;SDS011;9808;52.402;16.678;2023-03-01T13:19:16;16.07;;;6.47;;
19343;SDS011;9808;52.402;16.678;2023-03-01T13:21:44;16.03;;;7.07;;
19343;SDS011;9808;52.402;16.678;2023-03-01T13:29:51;13.70;;;5.43;;
19343;SDS011;9808;52.402;16.678;2023-03-01T13:37:45;13.70;;;5.37;;
19343;SDS011;9808;52.402;16.678;2023-03-01T13:42:45;12.37;;;4.60;;
19343;SDS011;9808;52.402;16.678;2023-03-01T13:45:36;11.00;;;3.97;;
19343;SDS011;9808;52.402;16.678;2023-03-01T13:48:11;10.87;;;4.70;;
19343;SDS011;9808;52.402;16.678;2023-03-01T13:50:46;9.80;;;4.47;;
19343;SDS011;9808;52.402;16.678;2023-03-01T13:53:16;8.33;;;4.17;;
19343;SDS011;9808;52.402;16.678;2023-03-01T13:55:45;7.90;;;4.10;;
19343;SDS011;9808;52.402;16.678;2023-03-01T13:58:32;10.40;;;4.33;;
19343;SDS011;9808;52.402;16.678;2023-03-01T14:01:00;8.03;;;3.90;;
19343;SDS011;9808;52.402;16.678;2023-03-01T14:03:29;10.47;;;4.57;;
19343;SDS011;9808;52.402;16.678;2023-03-01T14:05:59;9.10;;;4.23;;
19343;SDS011;9808;52.402;16.678;2023-03-01T14:08:39;10.33;;;4.53;;
19343;SDS011;9808;52.402;16.678;2023-03-01T14:11:13;11.27;;;5.00;;
19343;SDS011;9808;52.402;16.678;2023-03-01T14:21:19;13.67;;;5.20;;
19343;SDS011;9808;52.402;16.678;2023-03-01T14:23:48;9.63;;;4.67;;
19343;SDS011;9808;52.402;16.678;2023-03-01T14:26:20;10.17;;;4.67;;
19343;SDS011;9808;52.402;16.678;2023-03-01T14:28:47;12.97;;;4.57;;
19343;SDS011;9808;52.402;16.678;2023-03-01T14:34:03;11.40;;;4.20;;
19343;SDS011;9808;52.402;16.678;2023-03-01T14:36:32;10.57;;;4.57;;
19343;SDS011;9808;52.402;16.678;2023-03-01T14:39:00;14.63;;;4.63;;
19343;SDS011;9808;52.402;16.678;2023-03-01T14:41:34;9.70;;;4.60;;
19343;SDS011;9808;52.402;16.678;2023-03-01T14:44:12;12.00;;;4.30;;
19343;SDS011;9808;52.402;16.678;2023-03-01T14:46:41;10.60;;;4.53;;
19343;SDS011;9808;52.402;16.678;2023-03-01T14:49:11;11.30;;;4.70;;
19343;SDS011;9808;52.402;16.678;2023-03-01T14:51:40;11.37;;;4.57;;
19343;SDS011;9808;52.402;16.678;2023-03-01T14:56:47;10.70;;;4.67;;
19343;SDS011;9808;52.402;16.678;2023-03-01T14:59:14;11.03;;;4.90;;
19343;SDS011;9808;52.402;16.678;2023-03-01T15:01:42;14.97;;;4.73;;
19343;SDS011;9808;52.402;16.678;2023-03-01T15:04:11;12.07;;;5.00;;
19343;SDS011;9808;52.402;16.678;2023-03-01T15:06:39;10.90;;;5.40;;
19343;SDS011;9808;52.402;16.678;2023-03-01T15:09:06;15.73;;;5.37;;
19343;SDS011;9808;52.402;16.678;2023-03-01T15:11:37;14.03;;;5.80;;
19343;SDS011;9808;52.402;16.678;2023-03-01T15:14:25;11.17;;;4.90;;
19343;SDS011;9808;52.402;16.678;2023-03-01T15:16:53;13.37;;;5.10;;
19343;SDS011;9808;52.402;16.678;2023-03-01T15:19:21;9.97;;;4.97;;
19343;SDS011;9808;52.402;16.678;2023-03-01T15:21:50;15.10;;;5.40;;
19343;SDS011;9808;52.402;16.678;2023-03-01T15:24:23;9.63;;;4.80;;
19343;SDS011;9808;52.402;16.678;2023-03-01T15:27:36;13.20;;;5.27;;
19343;SDS011;9808;52.402;16.678;2023-03-01T15:34:55;11.97;;;5.47;;
19343;SDS011;9808;52.402;16.678;2023-03-01T15:42:46;20.13;;;7.37;;
19343;SDS011;9808;52.402;16.678;2023-03-01T15:47:47;11.60;;;4.87;;
19343;SDS011;9808;52.402;16.678;2023-03-01T15:50:19;10.30;;;5.33;;
19343;SDS011;9808;52.402;16.678;2023-03-01T15:52:47;15.93;;;6.40;;
19343;SDS011;9808;52.402;16.678;2023-03-01T15:55:19;13.10;;;6.23;;
19343;SDS011;9808;52.402;16.678;2023-03-01T15:57:47;13.47;;;6.10;;
19343;SDS011;9808;52.402;16.678;2023-03-01T16:00:15;13.33;;;5.70;;
19343;SDS011;9808;52.402;16.678;2023-03-01T16:02:43;14.30;;;6.27;;
19343;SDS011;9808;52.402;16.678;2023-03-01T16:05:19;12.37;;;6.17;;
19343;SDS011;9808;52.402;16.678;2023-03-01T16:07:46;18.47;;;7.43;;
19343;SDS011;9808;52.402;16.678;2023-03-01T16:10:14;29.23;;;12.43;;
19343;SDS011;9808;52.402;16.678;2023-03-01T16:12:41;35.50;;;16.10;;
19343;SDS011;9808;52.402;16.678;2023-03-01T16:15:43;48.60;;;19.90;;
19343;SDS011;9808;52.402;16.678;2023-03-01T16:18:04;40.50;;;17.33;;
19343;SDS011;9808;52.402;16.678;2023-03-01T16:20:32;31.30;;;14.40;;
19343;SDS011;9808;52.402;16.678;2023-03-01T16:23:03;25.67;;;11.00;;
19343;SDS011;9808;52.402;16.678;2023-03-01T16:25:31;23.70;;;11.13;;
19343;SDS011;9808;52.402;16.678;2023-03-01T16:27:58;21.80;;;9.93;;
19343;SDS011;9808;52.402;16.678;2023-03-01T16:30:30;21.30;;;9.70;;
19343;SDS011;9808;52.402;16.678;2023-03-01T16:32:57;23.63;;;10.97;;
19343;SDS011;9808;52.402;16.678;2023-03-01T16:35:25;35.90;;;13.93;;
19343;SDS011;9808;52.402;16.678;2023-03-01T16:37:52;68.37;;;22.97;;
19343;SDS011;9808;52.402;16.678;2023-03-01T16:42:50;56.97;;;23.30;;
19343;SDS011;9808;52.402;16.678;2023-03-01T16:45:18;58.13;;;23.13;;
19343;SDS011;9808;52.402;16.678;2023-03-01T16:47:52;65.33;;;23.73;;
19343;SDS011;9808;52.402;16.678;2023-03-01T16:50:21;58.17;;;22.80;;